sensor_id;sensor_type;location;lat;lon;timestamp;temperature;humidity
16663;DHT22;8445;51.270;9.434;2022-07-29T00:00:55;18.20;46.00
16663;DHT22;8445;51.270;9.434;2022-07-29T00:03:20;18.30;46.40
16663;DHT22;8445;51.270;9.434;2022-07-29T00:05:46;18.30;45.60
16663;DHT22;8445;51.270;9.434;2022-07-29T00:08:12;18.30;46.20
16663;DHT22;8445;51.270;9.434;2022-07-29T00:10:38;18.30;46.20
16663;DHT22;8445;51.270;9.434;2022-07-29T00:13:04;18.30;45.80
16663;DHT22;8445;51.270;9.434;2022-07-29T00:15:30;18.30;46.00
16663;DHT22;8445;51.270;9.434;2022-07-29T00:17:56;18.30;45.80
16663;DHT22;8445;51.270;9.434;2022-07-29T00:20:22;18.30;46.00
16663;DHT22;8445;51.270;9.434;2022-07-29T00:22:48;18.30;46.10
16663;DHT22;8445;51.270;9.434;2022-07-29T00:25:13;18.30;46.00
16663;DHT22;8445;51.270;9.434;2022-07-29T00:27:39;18.30;46.30
16663;DHT22;8445;51.270;9.434;2022-07-29T00:30:06;18.20;45.90
16663;DHT22;8445;51.270;9.434;2022-07-29T00:32:33;18.20;46.60
16663;DHT22;8445;51.270;9.434;2022-07-29T00:34:59;18.20;46.60
16663;DHT22;8445;51.270;9.434;2022-07-29T00:37:43;18.20;46.50
16663;DHT22;8445;51.270;9.434;2022-07-29T00:40:10;18.20;46.80
16663;DHT22;8445;51.270;9.434;2022-07-29T00:42:47;18.20;46.40
16663;DHT22;8445;51.270;9.434;2022-07-29T00:45:15;18.10;47.30
16663;DHT22;8445;51.270;9.434;2022-07-29T00:47:42;18.10;46.70
16663;DHT22;8445;51.270;9.434;2022-07-29T00:50:10;18.10;46.90
16663;DHT22;8445;51.270;9.434;2022-07-29T00:52:38;18.10;46.90
16663;DHT22;8445;51.270;9.434;2022-07-29T00:55:08;18.00;47.10
16663;DHT22;8445;51.270;9.434;2022-07-29T00:57:36;18.10;46.90
16663;DHT22;8445;51.270;9.434;2022-07-29T01:00:04;18.00;47.10
16663;DHT22;8445;51.270;9.434;2022-07-29T01:02:32;18.00;47.20
16663;DHT22;8445;51.270;9.434;2022-07-29T01:04:57;18.00;47.00
16663;DHT22;8445;51.270;9.434;2022-07-29T01:07:28;17.90;47.20
16663;DHT22;8445;51.270;9.434;2022-07-29T01:09:57;17.90;46.90
16663;DHT22;8445;51.270;9.434;2022-07-29T01:12:28;17.80;47.50
16663;DHT22;8445;51.270;9.434;2022-07-29T01:15:00;17.80;47.50
16663;DHT22;8445;51.270;9.434;2022-07-29T01:17:39;17.80;47.70
16663;DHT22;8445;51.270;9.434;2022-07-29T01:32:02;17.60;49.10
16663;DHT22;8445;51.270;9.434;2022-07-29T01:37:36;17.60;47.90
16663;DHT22;8445;51.270;9.434;2022-07-29T01:40:22;17.60;49.10
16663;DHT22;8445;51.270;9.434;2022-07-29T01:43:00;17.50;47.80
16663;DHT22;8445;51.270;9.434;2022-07-29T01:45:40;17.50;48.10
16663;DHT22;8445;51.270;9.434;2022-07-29T01:48:18;17.50;48.50
16663;DHT22;8445;51.270;9.434;2022-07-29T01:51:14;17.50;48.60
16663;DHT22;8445;51.270;9.434;2022-07-29T01:53:50;17.50;48.20
16663;DHT22;8445;51.270;9.434;2022-07-29T01:56:39;17.40;47.70
16663;DHT22;8445;51.270;9.434;2022-07-29T01:59:09;17.30;47.70
16663;DHT22;8445;51.270;9.434;2022-07-29T02:01:37;17.30;48.20
16663;DHT22;8445;51.270;9.434;2022-07-29T02:04:07;17.20;48.80
16663;DHT22;8445;51.270;9.434;2022-07-29T02:06:38;17.20;48.90
16663;DHT22;8445;51.270;9.434;2022-07-29T02:09:08;17.10;48.10
16663;DHT22;8445;51.270;9.434;2022-07-29T02:11:37;17.20;49.10
16663;DHT22;8445;51.270;9.434;2022-07-29T02:14:07;17.10;48.80
16663;DHT22;8445;51.270;9.434;2022-07-29T02:16:36;17.10;48.20
16663;DHT22;8445;51.270;9.434;2022-07-29T02:19:05;17.00;47.70
16663;DHT22;8445;51.270;9.434;2022-07-29T02:21:35;16.90;50.30
16663;DHT22;8445;51.270;9.434;2022-07-29T02:24:02;16.90;49.30
16663;DHT22;8445;51.270;9.434;2022-07-29T02:26:30;16.90;49.40
16663;DHT22;8445;51.270;9.434;2022-07-29T02:28:59;16.90;49.60
16663;DHT22;8445;51.270;9.434;2022-07-29T02:31:31;16.90;49.70
16663;DHT22;8445;51.270;9.434;2022-07-29T02:34:01;16.90;49.40
16663;DHT22;8445;51.270;9.434;2022-07-29T02:36:31;16.90;50.10
16663;DHT22;8445;51.270;9.434;2022-07-29T02:39:00;16.90;49.80
16663;DHT22;8445;51.270;9.434;2022-07-29T02:41:30;16.80;49.60
16663;DHT22;8445;51.270;9.434;2022-07-29T02:44:09;16.80;50.30
16663;DHT22;8445;51.270;9.434;2022-07-29T02:46:39;16.80;49.10
16663;DHT22;8445;51.270;9.434;2022-07-29T02:51:54;16.60;49.80
16663;DHT22;8445;51.270;9.434;2022-07-29T02:54:37;16.60;50.50
16663;DHT22;8445;51.270;9.434;2022-07-29T02:57:14;16.60;49.70
16663;DHT22;8445;51.270;9.434;2022-07-29T02:59:49;16.60;50.70
16663;DHT22;8445;51.270;9.434;2022-07-29T03:02:18;16.50;49.70
16663;DHT22;8445;51.270;9.434;2022-07-29T03:04:46;16.50;50.40
16663;DHT22;8445;51.270;9.434;2022-07-29T03:07:15;16.50;50.00
16663;DHT22;8445;51.270;9.434;2022-07-29T03:09:46;16.40;50.80
16663;DHT22;8445;51.270;9.434;2022-07-29T03:12:14;16.50;50.60
16663;DHT22;8445;51.270;9.434;2022-07-29T03:14:40;16.50;50.80
16663;DHT22;8445;51.270;9.434;2022-07-29T03:17:09;16.40;51.10
16663;DHT22;8445;51.270;9.434;2022-07-29T03:19:36;16.40;50.10
16663;DHT22;8445;51.270;9.434;2022-07-29T03:22:02;16.30;50.30
16663;DHT22;8445;51.270;9.434;2022-07-29T03:24:36;16.30;50.60
16663;DHT22;8445;51.270;9.434;2022-07-29T03:27:03;16.20;49.90
16663;DHT22;8445;51.270;9.434;2022-07-29T03:29:31;16.20;49.90
16663;DHT22;8445;51.270;9.434;2022-07-29T03:31:57;16.20;49.90
16663;DHT22;8445;51.270;9.434;2022-07-29T03:34:23;16.10;50.40
16663;DHT22;8445;51.270;9.434;2022-07-29T03:36:49;16.10;50.40
16663;DHT22;8445;51.270;9.434;2022-07-29T03:39:18;16.10;50.10
16663;DHT22;8445;51.270;9.434;2022-07-29T03:41:49;16.10;50.30
16663;DHT22;8445;51.270;9.434;2022-07-29T03:44:17;16.10;49.90
16663;DHT22;8445;51.270;9.434;2022-07-29T03:46:48;16.10;49.90
16663;DHT22;8445;51.270;9.434;2022-07-29T03:49:37;16.10;49.90
16663;DHT22;8445;51.270;9.434;2022-07-29T03:52:43;16.10;50.30
16663;DHT22;8445;51.270;9.434;2022-07-29T03:55:09;16.20;50.10
16663;DHT22;8445;51.270;9.434;2022-07-29T03:57:36;16.20;50.80
16663;DHT22;8445;51.270;9.434;2022-07-29T04:00:05;16.30;50.70
16663;DHT22;8445;51.270;9.434;2022-07-29T04:02:33;16.40;50.50
16663;DHT22;8445;51.270;9.434;2022-07-29T04:05:01;16.50;51.30
16663;DHT22;8445;51.270;9.434;2022-07-29T04:07:27;16.60;51.90
16663;DHT22;8445;51.270;9.434;2022-07-29T04:09:53;16.70;51.10
16663;DHT22;8445;51.270;9.434;2022-07-29T04:12:19;16.80;50.70
16663;DHT22;8445;51.270;9.434;2022-07-29T04:14:46;16.90;50.70
16663;DHT22;8445;51.270;9.434;2022-07-29T04:17:12;17.00;51.00
16663;DHT22;8445;51.270;9.434;2022-07-29T04:19:38;17.00;50.80
16663;DHT22;8445;51.270;9.434;2022-07-29T04:22:04;17.10;50.70
16663;DHT22;8445;51.270;9.434;2022-07-29T04:24:30;17.10;50.40
16663;DHT22;8445;51.270;9.434;2022-07-29T04:26:55;17.10;50.30
16663;DHT22;8445;51.270;9.434;2022-07-29T04:29:21;17.20;50.30
16663;DHT22;8445;51.270;9.434;2022-07-29T04:31:47;17.10;50.20
16663;DHT22;8445;51.270;9.434;2022-07-29T04:34:13;17.10;51.30
16663;DHT22;8445;51.270;9.434;2022-07-29T04:36:39;17.10;50.50
16663;DHT22;8445;51.270;9.434;2022-07-29T04:39:05;17.10;50.80
16663;DHT22;8445;51.270;9.434;2022-07-29T04:41:31;17.10;50.60
16663;DHT22;8445;51.270;9.434;2022-07-29T04:43:57;17.20;50.50
16663;DHT22;8445;51.270;9.434;2022-07-29T04:46:26;17.20;50.50
16663;DHT22;8445;51.270;9.434;2022-07-29T04:48:52;17.30;50.70
16663;DHT22;8445;51.270;9.434;2022-07-29T04:51:18;17.30;50.80
16663;DHT22;8445;51.270;9.434;2022-07-29T04:53:44;17.40;50.50
16663;DHT22;8445;51.270;9.434;2022-07-29T04:56:09;17.50;50.70
16663;DHT22;8445;51.270;9.434;2022-07-29T04:58:35;17.60;50.80
16663;DHT22;8445;51.270;9.434;2022-07-29T05:01:02;17.70;50.80
16663;DHT22;8445;51.270;9.434;2022-07-29T05:03:31;17.90;51.40
16663;DHT22;8445;51.270;9.434;2022-07-29T05:05:57;17.90;51.30
16663;DHT22;8445;51.270;9.434;2022-07-29T05:08:22;18.00;50.90
16663;DHT22;8445;51.270;9.434;2022-07-29T05:10:48;18.10;50.80
16663;DHT22;8445;51.270;9.434;2022-07-29T05:13:14;18.10;50.70
16663;DHT22;8445;51.270;9.434;2022-07-29T05:15:40;18.20;50.80
16663;DHT22;8445;51.270;9.434;2022-07-29T05:18:06;18.20;50.70
16663;DHT22;8445;51.270;9.434;2022-07-29T05:20:32;18.30;50.80
16663;DHT22;8445;51.270;9.434;2022-07-29T05:23:00;18.40;51.00
16663;DHT22;8445;51.270;9.434;2022-07-29T05:25:28;18.40;51.10
16663;DHT22;8445;51.270;9.434;2022-07-29T05:27:55;18.50;51.20
16663;DHT22;8445;51.270;9.434;2022-07-29T05:30:21;18.60;51.00
16663;DHT22;8445;51.270;9.434;2022-07-29T05:32:47;18.60;50.50
16663;DHT22;8445;51.270;9.434;2022-07-29T05:35:14;18.70;50.60
16663;DHT22;8445;51.270;9.434;2022-07-29T05:37:41;18.60;51.10
16663;DHT22;8445;51.270;9.434;2022-07-29T05:40:07;18.70;50.90
16663;DHT22;8445;51.270;9.434;2022-07-29T05:42:34;18.70;50.70
16663;DHT22;8445;51.270;9.434;2022-07-29T05:45:00;18.70;50.70
16663;DHT22;8445;51.270;9.434;2022-07-29T05:47:26;18.70;50.80
16663;DHT22;8445;51.270;9.434;2022-07-29T05:49:52;18.60;50.60
16663;DHT22;8445;51.270;9.434;2022-07-29T05:52:19;18.50;51.20
16663;DHT22;8445;51.270;9.434;2022-07-29T05:54:46;18.50;51.70
16663;DHT22;8445;51.270;9.434;2022-07-29T05:57:20;18.50;50.80
16663;DHT22;8445;51.270;9.434;2022-07-29T05:59:48;18.50;51.10
16663;DHT22;8445;51.270;9.434;2022-07-29T06:02:14;18.50;51.00
16663;DHT22;8445;51.270;9.434;2022-07-29T06:04:49;18.50;51.20
16663;DHT22;8445;51.270;9.434;2022-07-29T06:07:17;18.50;52.30
16663;DHT22;8445;51.270;9.434;2022-07-29T06:09:43;18.70;51.20
16663;DHT22;8445;51.270;9.434;2022-07-29T06:12:09;18.70;51.20
16663;DHT22;8445;51.270;9.434;2022-07-29T06:14:35;18.80;51.20
16663;DHT22;8445;51.270;9.434;2022-07-29T06:17:01;18.90;51.60
16663;DHT22;8445;51.270;9.434;2022-07-29T06:19:27;19.00;51.40
16663;DHT22;8445;51.270;9.434;2022-07-29T06:21:53;19.20;51.40
16663;DHT22;8445;51.270;9.434;2022-07-29T06:24:19;19.30;51.00
16663;DHT22;8445;51.270;9.434;2022-07-29T06:26:45;19.40;51.00
16663;DHT22;8445;51.270;9.434;2022-07-29T06:29:11;19.60;50.70
16663;DHT22;8445;51.270;9.434;2022-07-29T06:31:37;19.60;50.40
16663;DHT22;8445;51.270;9.434;2022-07-29T06:34:05;19.60;50.20
16663;DHT22;8445;51.270;9.434;2022-07-29T06:36:34;19.60;50.20
16663;DHT22;8445;51.270;9.434;2022-07-29T06:39:06;19.50;50.20
16663;DHT22;8445;51.270;9.434;2022-07-29T06:41:33;19.50;50.50
16663;DHT22;8445;51.270;9.434;2022-07-29T06:44:08;19.50;50.50
16663;DHT22;8445;51.270;9.434;2022-07-29T06:46:34;19.50;50.60
16663;DHT22;8445;51.270;9.434;2022-07-29T06:49:00;19.50;50.60
16663;DHT22;8445;51.270;9.434;2022-07-29T06:51:26;19.50;50.70
16663;DHT22;8445;51.270;9.434;2022-07-29T06:53:53;19.50;50.70
16663;DHT22;8445;51.270;9.434;2022-07-29T06:56:19;19.50;50.70
16663;DHT22;8445;51.270;9.434;2022-07-29T06:58:44;19.60;50.90
16663;DHT22;8445;51.270;9.434;2022-07-29T07:01:10;19.70;51.00
16663;DHT22;8445;51.270;9.434;2022-07-29T07:03:36;19.80;50.90
16663;DHT22;8445;51.270;9.434;2022-07-29T07:06:02;19.80;50.80
16663;DHT22;8445;51.270;9.434;2022-07-29T07:08:28;19.90;50.70
16663;DHT22;8445;51.270;9.434;2022-07-29T07:10:54;19.90;50.80
16663;DHT22;8445;51.270;9.434;2022-07-29T07:13:22;20.00;50.90
16663;DHT22;8445;51.270;9.434;2022-07-29T07:15:48;20.10;50.90
16663;DHT22;8445;51.270;9.434;2022-07-29T07:18:16;20.00;50.80
16663;DHT22;8445;51.270;9.434;2022-07-29T07:20:42;20.00;50.70
16663;DHT22;8445;51.270;9.434;2022-07-29T07:23:09;20.00;50.90
16663;DHT22;8445;51.270;9.434;2022-07-29T07:25:35;19.90;50.90
16663;DHT22;8445;51.270;9.434;2022-07-29T07:28:01;19.90;51.00
16663;DHT22;8445;51.270;9.434;2022-07-29T07:30:27;19.80;51.00
16663;DHT22;8445;51.270;9.434;2022-07-29T07:32:54;19.80;51.10
16663;DHT22;8445;51.270;9.434;2022-07-29T07:35:21;19.70;51.20
16663;DHT22;8445;51.270;9.434;2022-07-29T07:37:47;19.70;51.30
16663;DHT22;8445;51.270;9.434;2022-07-29T07:40:14;19.60;51.40
16663;DHT22;8445;51.270;9.434;2022-07-29T07:42:40;19.50;51.50
16663;DHT22;8445;51.270;9.434;2022-07-29T07:45:08;19.40;51.70
16663;DHT22;8445;51.270;9.434;2022-07-29T07:47:38;19.40;51.90
16663;DHT22;8445;51.270;9.434;2022-07-29T07:50:06;19.30;51.80
16663;DHT22;8445;51.270;9.434;2022-07-29T07:52:49;19.30;52.00
16663;DHT22;8445;51.270;9.434;2022-07-29T07:55:17;19.20;52.20
16663;DHT22;8445;51.270;9.434;2022-07-29T07:57:44;19.10;52.40
16663;DHT22;8445;51.270;9.434;2022-07-29T08:00:13;19.10;52.50
16663;DHT22;8445;51.270;9.434;2022-07-29T08:02:40;18.90;55.80
16663;DHT22;8445;51.270;9.434;2022-07-29T08:05:08;18.70;55.50
16663;DHT22;8445;51.270;9.434;2022-07-29T08:07:35;18.40;56.60
16663;DHT22;8445;51.270;9.434;2022-07-29T08:10:02;18.20;55.40
16663;DHT22;8445;51.270;9.434;2022-07-29T08:12:28;18.10;55.60
16663;DHT22;8445;51.270;9.434;2022-07-29T08:14:54;18.10;56.70
16663;DHT22;8445;51.270;9.434;2022-07-29T08:17:20;18.20;55.70
16663;DHT22;8445;51.270;9.434;2022-07-29T08:19:46;18.50;61.00
16663;DHT22;8445;51.270;9.434;2022-07-29T08:22:14;18.60;59.30
16663;DHT22;8445;51.270;9.434;2022-07-29T08:24:40;18.70;59.10
16663;DHT22;8445;51.270;9.434;2022-07-29T08:27:12;18.70;58.70
16663;DHT22;8445;51.270;9.434;2022-07-29T08:29:39;18.50;58.70
16663;DHT22;8445;51.270;9.434;2022-07-29T08:32:05;18.30;58.80
16663;DHT22;8445;51.270;9.434;2022-07-29T08:34:32;18.20;58.20
16663;DHT22;8445;51.270;9.434;2022-07-29T08:36:58;17.90;61.10
16663;DHT22;8445;51.270;9.434;2022-07-29T08:39:24;17.80;60.90
16663;DHT22;8445;51.270;9.434;2022-07-29T08:41:51;17.70;60.20
16663;DHT22;8445;51.270;9.434;2022-07-29T08:44:19;17.60;58.20
16663;DHT22;8445;51.270;9.434;2022-07-29T08:46:47;17.60;61.10
16663;DHT22;8445;51.270;9.434;2022-07-29T08:49:15;17.60;62.30
16663;DHT22;8445;51.270;9.434;2022-07-29T08:51:42;17.70;60.70
16663;DHT22;8445;51.270;9.434;2022-07-29T08:54:09;17.90;61.10
16663;DHT22;8445;51.270;9.434;2022-07-29T08:56:38;18.20;61.00
16663;DHT22;8445;51.270;9.434;2022-07-29T08:59:08;18.70;61.20
16663;DHT22;8445;51.270;9.434;2022-07-29T09:01:37;19.30;60.30
16663;DHT22;8445;51.270;9.434;2022-07-29T09:04:10;20.00;59.30
16663;DHT22;8445;51.270;9.434;2022-07-29T09:06:38;20.70;58.90
16663;DHT22;8445;51.270;9.434;2022-07-29T09:09:08;21.50;58.20
16663;DHT22;8445;51.270;9.434;2022-07-29T09:11:34;22.10;57.10
16663;DHT22;8445;51.270;9.434;2022-07-29T09:14:00;22.60;56.60
16663;DHT22;8445;51.270;9.434;2022-07-29T09:16:53;23.00;55.50
16663;DHT22;8445;51.270;9.434;2022-07-29T09:19:26;23.20;54.60
16663;DHT22;8445;51.270;9.434;2022-07-29T09:21:57;23.30;54.60
16663;DHT22;8445;51.270;9.434;2022-07-29T09:24:45;23.40;54.30
16663;DHT22;8445;51.270;9.434;2022-07-29T09:27:19;23.50;54.20
16663;DHT22;8445;51.270;9.434;2022-07-29T09:29:55;23.60;53.40
16663;DHT22;8445;51.270;9.434;2022-07-29T09:32:23;23.80;53.80
16663;DHT22;8445;51.270;9.434;2022-07-29T09:34:49;24.00;53.30
16663;DHT22;8445;51.270;9.434;2022-07-29T09:37:28;24.20;53.40
16663;DHT22;8445;51.270;9.434;2022-07-29T09:39:54;24.40;49.90
16663;DHT22;8445;51.270;9.434;2022-07-29T09:42:29;24.70;53.30
16663;DHT22;8445;51.270;9.434;2022-07-29T09:44:57;25.00;51.00
16663;DHT22;8445;51.270;9.434;2022-07-29T09:50:12;25.40;48.60
16663;DHT22;8445;51.270;9.434;2022-07-29T09:52:50;25.40;50.60
16663;DHT22;8445;51.270;9.434;2022-07-29T09:55:19;25.40;50.20
16663;DHT22;8445;51.270;9.434;2022-07-29T09:57:46;25.10;50.30
16663;DHT22;8445;51.270;9.434;2022-07-29T10:00:18;24.80;50.40
16663;DHT22;8445;51.270;9.434;2022-07-29T10:02:48;24.50;50.50
16663;DHT22;8445;51.270;9.434;2022-07-29T10:05:27;24.20;50.90
16663;DHT22;8445;51.270;9.434;2022-07-29T10:07:57;24.00;51.00
16663;DHT22;8445;51.270;9.434;2022-07-29T10:10:25;23.80;51.60
16663;DHT22;8445;51.270;9.434;2022-07-29T10:13:09;23.90;52.10
16663;DHT22;8445;51.270;9.434;2022-07-29T10:15:40;24.00;51.60
16663;DHT22;8445;51.270;9.434;2022-07-29T10:18:12;24.00;51.80
16663;DHT22;8445;51.270;9.434;2022-07-29T10:20:39;24.10;51.50
16663;DHT22;8445;51.270;9.434;2022-07-29T10:23:06;24.10;51.10
16663;DHT22;8445;51.270;9.434;2022-07-29T10:25:32;24.20;51.50
16663;DHT22;8445;51.270;9.434;2022-07-29T10:27:58;24.40;51.60
16663;DHT22;8445;51.270;9.434;2022-07-29T10:30:25;24.50;51.60
16663;DHT22;8445;51.270;9.434;2022-07-29T10:33:21;24.80;51.50
16663;DHT22;8445;51.270;9.434;2022-07-29T10:36:32;25.40;51.60
16663;DHT22;8445;51.270;9.434;2022-07-29T10:39:22;25.80;50.90
16663;DHT22;8445;51.270;9.434;2022-07-29T10:44:42;26.60;49.50
16663;DHT22;8445;51.270;9.434;2022-07-29T10:47:20;26.80;49.90
16663;DHT22;8445;51.270;9.434;2022-07-29T10:50:01;27.10;49.40
16663;DHT22;8445;51.270;9.434;2022-07-29T10:55:37;27.60;48.80
16663;DHT22;8445;51.270;9.434;2022-07-29T10:58:28;27.60;48.80
16663;DHT22;8445;51.270;9.434;2022-07-29T11:00:54;27.80;49.40
16663;DHT22;8445;51.270;9.434;2022-07-29T11:03:46;27.90;48.90
16663;DHT22;8445;51.270;9.434;2022-07-29T11:06:13;27.80;42.90
16663;DHT22;8445;51.270;9.434;2022-07-29T11:08:40;27.70;47.30
16663;DHT22;8445;51.270;9.434;2022-07-29T11:16:12;26.90;47.50
16663;DHT22;8445;51.270;9.434;2022-07-29T11:21:43;27.10;44.70
16663;DHT22;8445;51.270;9.434;2022-07-29T11:24:21;27.30;48.10
16663;DHT22;8445;51.270;9.434;2022-07-29T11:27:16;27.70;47.70
16663;DHT22;8445;51.270;9.434;2022-07-29T11:29:53;27.90;46.90
16663;DHT22;8445;51.270;9.434;2022-07-29T11:32:25;28.00;47.00
16663;DHT22;8445;51.270;9.434;2022-07-29T11:35:10;27.90;46.50
16663;DHT22;8445;51.270;9.434;2022-07-29T11:37:40;27.80;45.20
16663;DHT22;8445;51.270;9.434;2022-07-29T11:45:19;27.40;46.70
16663;DHT22;8445;51.270;9.434;2022-07-29T11:47:55;27.30;46.60
16663;DHT22;8445;51.270;9.434;2022-07-29T11:50:30;27.30;46.40
16663;DHT22;8445;51.270;9.434;2022-07-29T11:53:13;27.30;46.90
16663;DHT22;8445;51.270;9.434;2022-07-29T11:55:40;27.30;46.10
16663;DHT22;8445;51.270;9.434;2022-07-29T11:58:07;27.40;46.70
16663;DHT22;8445;51.270;9.434;2022-07-29T12:00:36;27.50;46.70
16663;DHT22;8445;51.270;9.434;2022-07-29T12:03:24;27.70;46.90
16663;DHT22;8445;51.270;9.434;2022-07-29T12:05:59;28.10;46.80
16663;DHT22;8445;51.270;9.434;2022-07-29T12:08:25;28.60;46.70
16663;DHT22;8445;51.270;9.434;2022-07-29T12:10:53;29.00;46.10
16663;DHT22;8445;51.270;9.434;2022-07-29T12:13:20;29.40;45.90
16663;DHT22;8445;51.270;9.434;2022-07-29T12:15:56;29.70;44.70
16663;DHT22;8445;51.270;9.434;2022-07-29T12:18:24;29.90;43.60
16663;DHT22;8445;51.270;9.434;2022-07-29T12:21:00;29.90;44.50
16663;DHT22;8445;51.270;9.434;2022-07-29T12:23:33;30.00;44.50
16663;DHT22;8445;51.270;9.434;2022-07-29T12:26:00;30.00;44.10
16663;DHT22;8445;51.270;9.434;2022-07-29T12:28:39;30.00;43.30
16663;DHT22;8445;51.270;9.434;2022-07-29T12:31:05;29.80;42.40
16663;DHT22;8445;51.270;9.434;2022-07-29T12:33:31;29.70;43.10
16663;DHT22;8445;51.270;9.434;2022-07-29T12:36:01;29.60;43.40
16663;DHT22;8445;51.270;9.434;2022-07-29T12:38:28;29.50;43.30
16663;DHT22;8445;51.270;9.434;2022-07-29T12:40:55;29.40;43.00
16663;DHT22;8445;51.270;9.434;2022-07-29T12:43:22;29.30;43.20
16663;DHT22;8445;51.270;9.434;2022-07-29T12:45:55;29.20;41.80
16663;DHT22;8445;51.270;9.434;2022-07-29T12:48:40;29.20;41.50
16663;DHT22;8445;51.270;9.434;2022-07-29T12:51:08;29.20;42.20
16663;DHT22;8445;51.270;9.434;2022-07-29T12:53:37;29.30;42.90
16663;DHT22;8445;51.270;9.434;2022-07-29T12:56:05;29.40;42.80
16663;DHT22;8445;51.270;9.434;2022-07-29T12:58:38;29.60;42.70
16663;DHT22;8445;51.270;9.434;2022-07-29T13:01:14;29.80;42.30
16663;DHT22;8445;51.270;9.434;2022-07-29T13:03:54;30.10;41.60
16663;DHT22;8445;51.270;9.434;2022-07-29T13:09:18;30.50;38.50
16663;DHT22;8445;51.270;9.434;2022-07-29T13:11:52;30.60;40.00
16663;DHT22;8445;51.270;9.434;2022-07-29T13:17:09;30.70;41.00
16663;DHT22;8445;51.270;9.434;2022-07-29T13:19:36;30.70;41.30
16663;DHT22;8445;51.270;9.434;2022-07-29T13:22:06;30.80;41.50
16663;DHT22;8445;51.270;9.434;2022-07-29T13:25:05;31.00;41.60
16663;DHT22;8445;51.270;9.434;2022-07-29T13:27:36;31.30;39.70
16663;DHT22;8445;51.270;9.434;2022-07-29T13:30:07;31.60;40.90
16663;DHT22;8445;51.270;9.434;2022-07-29T13:32:35;31.70;40.40
16663;DHT22;8445;51.270;9.434;2022-07-29T13:35:06;31.90;40.50
16663;DHT22;8445;51.270;9.434;2022-07-29T13:37:34;32.10;40.60
16663;DHT22;8445;51.270;9.434;2022-07-29T13:40:05;32.50;40.80
16663;DHT22;8445;51.270;9.434;2022-07-29T13:42:37;32.90;40.30
16663;DHT22;8445;51.270;9.434;2022-07-29T13:45:05;33.20;39.60
16663;DHT22;8445;51.270;9.434;2022-07-29T13:47:32;33.40;38.70
16663;DHT22;8445;51.270;9.434;2022-07-29T13:49:58;33.40;38.60
16663;DHT22;8445;51.270;9.434;2022-07-29T13:52:26;33.60;39.20
16663;DHT22;8445;51.270;9.434;2022-07-29T13:54:58;33.90;39.40
16663;DHT22;8445;51.270;9.434;2022-07-29T13:57:28;34.10;37.80
16663;DHT22;8445;51.270;9.434;2022-07-29T13:59:54;34.10;37.90
16663;DHT22;8445;51.270;9.434;2022-07-29T14:02:20;34.10;38.20
16663;DHT22;8445;51.270;9.434;2022-07-29T14:04:48;34.00;38.20
16663;DHT22;8445;51.270;9.434;2022-07-29T14:07:15;34.00;37.80
16663;DHT22;8445;51.270;9.434;2022-07-29T14:09:41;33.90;37.70
16663;DHT22;8445;51.270;9.434;2022-07-29T14:12:08;33.70;37.30
16663;DHT22;8445;51.270;9.434;2022-07-29T14:14:34;33.60;37.40
16663;DHT22;8445;51.270;9.434;2022-07-29T14:17:02;33.40;37.00
16663;DHT22;8445;51.270;9.434;2022-07-29T14:19:28;33.10;36.80
16663;DHT22;8445;51.270;9.434;2022-07-29T14:21:54;32.90;36.90
16663;DHT22;8445;51.270;9.434;2022-07-29T14:24:20;32.60;37.00
16663;DHT22;8445;51.270;9.434;2022-07-29T14:26:46;32.40;37.20
16663;DHT22;8445;51.270;9.434;2022-07-29T14:29:12;32.40;37.20
16663;DHT22;8445;51.270;9.434;2022-07-29T14:31:37;32.40;37.20
16663;DHT22;8445;51.270;9.434;2022-07-29T14:34:03;32.50;37.20
16663;DHT22;8445;51.270;9.434;2022-07-29T14:36:29;32.70;37.30
16663;DHT22;8445;51.270;9.434;2022-07-29T14:38:55;32.90;37.10
16663;DHT22;8445;51.270;9.434;2022-07-29T14:41:21;33.20;37.20
16663;DHT22;8445;51.270;9.434;2022-07-29T14:43:47;33.50;36.80
16663;DHT22;8445;51.270;9.434;2022-07-29T14:46:12;33.80;36.70
16663;DHT22;8445;51.270;9.434;2022-07-29T14:48:38;34.10;36.20
16663;DHT22;8445;51.270;9.434;2022-07-29T14:51:04;34.30;35.80
16663;DHT22;8445;51.270;9.434;2022-07-29T14:53:30;34.50;36.00
16663;DHT22;8445;51.270;9.434;2022-07-29T14:55:57;34.60;35.80
16663;DHT22;8445;51.270;9.434;2022-07-29T14:58:23;34.60;35.60
16663;DHT22;8445;51.270;9.434;2022-07-29T15:00:48;34.70;35.50
16663;DHT22;8445;51.270;9.434;2022-07-29T15:03:14;34.70;36.10
16663;DHT22;8445;51.270;9.434;2022-07-29T15:05:40;34.70;34.90
16663;DHT22;8445;51.270;9.434;2022-07-29T15:08:06;34.40;34.70
16663;DHT22;8445;51.270;9.434;2022-07-29T15:10:33;34.10;34.50
16663;DHT22;8445;51.270;9.434;2022-07-29T15:13:02;33.70;34.40
16663;DHT22;8445;51.270;9.434;2022-07-29T15:15:29;33.30;34.30
16663;DHT22;8445;51.270;9.434;2022-07-29T15:17:55;32.90;34.20
16663;DHT22;8445;51.270;9.434;2022-07-29T15:20:21;32.40;34.90
16663;DHT22;8445;51.270;9.434;2022-07-29T15:22:47;31.70;34.10
16663;DHT22;8445;51.270;9.434;2022-07-29T15:25:13;31.20;34.40
16663;DHT22;8445;51.270;9.434;2022-07-29T15:27:38;30.90;34.60
16663;DHT22;8445;51.270;9.434;2022-07-29T15:30:05;30.60;34.70
16663;DHT22;8445;51.270;9.434;2022-07-29T15:32:31;30.30;34.70
16663;DHT22;8445;51.270;9.434;2022-07-29T15:34:57;30.10;34.80
16663;DHT22;8445;51.270;9.434;2022-07-29T15:37:22;29.90;34.60
16663;DHT22;8445;51.270;9.434;2022-07-29T15:39:49;29.70;34.80
16663;DHT22;8445;51.270;9.434;2022-07-29T15:42:15;29.50;34.70
16663;DHT22;8445;51.270;9.434;2022-07-29T15:44:40;29.50;34.90
16663;DHT22;8445;51.270;9.434;2022-07-29T15:47:06;29.40;34.90
16663;DHT22;8445;51.270;9.434;2022-07-29T15:49:38;29.40;35.00
16663;DHT22;8445;51.270;9.434;2022-07-29T15:52:07;29.40;34.90
16663;DHT22;8445;51.270;9.434;2022-07-29T15:54:36;29.50;34.80
16663;DHT22;8445;51.270;9.434;2022-07-29T15:57:05;29.50;34.80
16663;DHT22;8445;51.270;9.434;2022-07-29T15:59:31;29.60;34.80
16663;DHT22;8445;51.270;9.434;2022-07-29T16:01:58;29.60;34.60
16663;DHT22;8445;51.270;9.434;2022-07-29T16:04:25;29.70;34.70
16663;DHT22;8445;51.270;9.434;2022-07-29T16:06:51;29.70;34.70
16663;DHT22;8445;51.270;9.434;2022-07-29T16:09:18;29.70;34.60
16663;DHT22;8445;51.270;9.434;2022-07-29T16:11:45;29.70;34.30
16663;DHT22;8445;51.270;9.434;2022-07-29T16:14:13;29.70;34.40
16663;DHT22;8445;51.270;9.434;2022-07-29T16:16:39;29.70;34.40
16663;DHT22;8445;51.270;9.434;2022-07-29T16:19:06;29.80;34.50
16663;DHT22;8445;51.270;9.434;2022-07-29T16:21:34;29.80;34.50
16663;DHT22;8445;51.270;9.434;2022-07-29T16:24:01;29.90;34.50
16663;DHT22;8445;51.270;9.434;2022-07-29T16:26:28;29.90;34.30
16663;DHT22;8445;51.270;9.434;2022-07-29T16:28:54;30.00;34.30
16663;DHT22;8445;51.270;9.434;2022-07-29T16:31:20;30.00;34.10
16663;DHT22;8445;51.270;9.434;2022-07-29T16:33:52;30.10;34.00
16663;DHT22;8445;51.270;9.434;2022-07-29T16:36:20;29.90;33.70
16663;DHT22;8445;51.270;9.434;2022-07-29T16:38:46;29.90;34.00
16663;DHT22;8445;51.270;9.434;2022-07-29T16:41:12;29.70;33.60
16663;DHT22;8445;51.270;9.434;2022-07-29T16:43:38;29.50;33.70